Terminal Aerodrome Forecast
Issued by NWS Melbourne, FL

Home | Current Version | Previous Version | Text Only | Print | Product List | Glossary On
Versions: 1 2 3 4 5 6 7 8 9 10 11 12 13 14
947
FTUS42 KMLB 021720
TAFDAB
TAF
KDAB 021720Z 0218/0318 01009KT P6SM SKC
     FM030000 35004KT P6SM SCT300
     FM031500 04011KT P6SM FEW030 SCT300=

USA.gov is the U.S. government's official web portal to all federal, state and local government web resources and services.